Main page
METAR-TAF:

METAR-TAF

Airports :

Leeuwarden Air Base

Leeuwarden, Netherlands

latitude: 53-13N, longitude: 005-46E, elevation: 1 m

Current weather observation

The report was made 25 minutes ago, at 15:25 UTC
Wind 6 kt from the East/Northeast, varying between North and Southeast
Temperature 30°C
Humidity 40%
Pressure 1019 hPa
Visibility 10 km or more

METAR: EHLW 071525Z AUTO 07006KT 350V140 9999 NCD 30/15 Q1019 BLU

Time: 17:50 (15:50 UTC)

Forecast

The report was made 3 hours and 5 minutes ago, at 12:45 UTC
Forecast valid from 07 at 13 UTC to 08 at 01 UTC
Wind 7 kt from the East
Visibility 10 km or more
no clouds below 1500 m and no cumulonimbus
Becoming
from 07 at 20 UTC to 07 at 23 UTC
Wind 3 kt from variable directions

TAF: EHLW 071245Z 0713/0801 08007KT CAVOK BECMG 0720/0723 VRB03KT

Weather observations and forecasts of more than 4000 airports (METAR and TAF reports).

The available stations are represented by yellow and red dots on the map.

Hover mouse over dot to see the name of the station.

Then click to see weather observations and forecasts.

To change the map : click on the green buttons with a black cross to zoom in, on the green button with a dash to zoom out, or on the green arrows for adjacent maps.


METAR-TAF: